Hamilton Island, Australia
Current Conditions -  °F | °C
As of 1:00 AM on Sunday 26 Oct 2014 (Local Time) from YBHM Reporting Station
Scattered Clouds Scattered Clouds  
Wind Chill: 72°   Ceiling: Unl
Heat Index: 72°   Visibility: 6mi
Dew Point: 61°   Wind: 10mph
Humidity: 69%   Direction: 80°E
Pressure: 30.06"   Gusts: NA
Location:  20.35°S, 148.95°E
Report Text: YBHM 251500Z AUTO 08009KT 9999 // SCT029 22/16 Q1018
Loading
Personal Weather Stations






























Interactive Weather Map
Tropical Storm Tracking
New forecast layout! Learn more

10-Day Weather Forecast

Advertisements
Track Severe Weather on mobile